createdAt,value
2022-11-05T00:03:24.237Z,98902.59
2022-11-05T00:06:19.813Z,98907.28
2022-11-05T00:09:17.905Z,98907.97
2022-11-05T00:12:07.118Z,98899.81
2022-11-05T00:15:00.474Z,98898.59
2022-11-05T00:17:33.447Z,98873.19
2022-11-05T00:20:14.289Z,98844.81
2022-11-05T00:23:23.168Z,98809.47
2022-11-05T00:26:27.293Z,98822.31
2022-11-05T00:28:58.336Z,98781.50
2022-11-05T00:31:38.301Z,98797.47
2022-11-05T00:34:08.850Z,98832.19
2022-11-05T00:36:44.894Z,98826.50
2022-11-05T00:39:19.598Z,98818.44
2022-11-05T00:42:18.441Z,98807.75
2022-11-05T00:45:02.231Z,98841.31
2022-11-05T00:48:33.698Z,98834.94
2022-11-05T00:51:04.605Z,98829.56
2022-11-05T00:53:39.844Z,98830.16
2022-11-05T00:56:07.541Z,98816.28
2022-11-05T00:58:35.034Z,98815.19
2022-11-05T01:01:06.031Z,98820.84
2022-11-05T01:03:37.413Z,98817.44
2022-11-05T01:06:15.226Z,98808.50
2022-11-05T01:08:50.619Z,98812.63
2022-11-05T01:11:51.395Z,98801.56
2022-11-05T01:14:39.085Z,98789.78
2022-11-05T01:17:16.467Z,98779.09
2022-11-05T01:19:58.065Z,98783.56
2022-11-05T01:25:28.348Z,98769.66
2022-11-05T01:28:07.695Z,98768.13
2022-11-05T01:30:43.353Z,98741.28
2022-11-05T01:33:40.799Z,98728.63
2022-11-05T01:36:18.058Z,98722.03
2022-11-05T01:40:15.284Z,98724.19
2022-11-05T01:42:47.986Z,98715.22
2022-11-05T01:49:09.993Z,98715.16
2022-11-05T01:51:50.112Z,98707.06
2022-11-05T01:54:37.309Z,98719.28
2022-11-05T01:57:15.107Z,98722.97
2022-11-05T02:03:07.232Z,98746.81
2022-11-05T02:05:46.511Z,98755.00
2022-11-05T02:08:36.908Z,98767.56
2022-11-05T02:11:23.958Z,98769.09
2022-11-05T02:13:55.424Z,98777.88
2022-11-05T02:16:55.695Z,98783.06
2022-11-05T02:20:01.062Z,98788.50
2022-11-05T02:23:14.380Z,98781.72
2022-11-05T02:26:08.278Z,98787.59
2022-11-05T02:29:11.420Z,98795.28
2022-11-05T02:32:22.082Z,98789.91
2022-11-05T02:35:01.308Z,98783.84
2022-11-05T02:37:43.932Z,98782.44
2022-11-05T02:41:03.961Z,98789.16
2022-11-05T02:47:43.778Z,98791.31
2022-11-05T02:50:46.271Z,98790.59
2022-11-05T02:53:53.467Z,98797.00
2022-11-05T02:57:12.044Z,98793.38
2022-11-05T02:59:59.257Z,98802.19
2022-11-05T03:06:56.829Z,98820.59
2022-11-05T03:10:31.203Z,98820.25
2022-11-05T03:14:01.446Z,98814.28
2022-11-05T03:17:21.793Z,98825.69
2022-11-05T03:20:25.656Z,98816.41
2022-11-05T03:23:35.360Z,98833.25
2022-11-05T03:26:37.788Z,98828.09
2022-11-05T03:29:57.934Z,98841.75
2022-11-05T03:33:30.348Z,98837.28
2022-11-05T03:36:27.343Z,98828.91
2022-11-05T03:39:45.057Z,98851.56
2022-11-05T03:42:28.467Z,98846.81
2022-11-05T03:46:21.023Z,98854.63
2022-11-05T03:50:01.864Z,98852.84
2022-11-05T03:53:21.293Z,98849.81
2022-11-05T03:56:44.019Z,98851.09
2022-11-05T03:59:24.959Z,98858.88
2022-11-05T04:02:35.601Z,98872.53
2022-11-05T04:05:15.155Z,98881.72
2022-11-05T04:08:14.300Z,98883.59
2022-11-05T04:11:43.494Z,98890.41
2022-11-05T04:14:20.282Z,98894.22
2022-11-05T04:17:28.432Z,98894.31
2022-11-05T04:20:15.466Z,98899.88
2022-11-05T04:23:06.425Z,98913.25
2022-11-05T04:25:35.418Z,98915.28
2022-11-05T04:28:03.039Z,98912.44
2022-11-05T04:30:31.056Z,98919.97
2022-11-05T04:33:08.904Z,98935.13
2022-11-05T04:35:51.171Z,98931.84
2022-11-05T04:38:21.563Z,98946.09
2022-11-05T04:40:51.760Z,98959.78
2022-11-05T04:43:27.290Z,98949.38
2022-11-05T04:45:59.504Z,98957.28
2022-11-05T04:48:45.718Z,98950.56
2022-11-05T04:51:36.332Z,98957.50
2022-11-05T04:54:57.465Z,98956.78
2022-11-05T04:57:33.830Z,98955.75
2022-11-05T05:01:00.213Z,98955.75
2022-11-05T05:04:54.134Z,98960.69
2022-11-05T05:07:29.124Z,98955.25
2022-11-05T05:10:14.085Z,98952.28
2022-11-05T05:12:54.601Z,98944.97
2022-11-05T05:15:26.341Z,98932.94
2022-11-05T05:18:34.429Z,98931.41
2022-11-05T05:21:48.133Z,98923.22
2022-11-05T05:24:25.264Z,98902.16
2022-11-05T05:30:24.460Z,98869.16
2022-11-05T05:33:04.571Z,98870.44
2022-11-05T05:35:38.624Z,98882.69
2022-11-05T05:38:10.126Z,98904.50
2022-11-05T05:40:38.875Z,98908.25
2022-11-05T05:43:09.114Z,98898.03
2022-11-05T05:45:36.748Z,98899.44
2022-11-05T05:48:06.819Z,98898.38
2022-11-05T05:50:34.692Z,98883.75
2022-11-05T05:53:08.136Z,98887.53
2022-11-05T05:55:36.152Z,98874.81
2022-11-05T05:58:03.382Z,98878.94
2022-11-05T06:00:39.629Z,98883.06
2022-11-05T06:03:20.155Z,98890.47
2022-11-05T06:05:49.978Z,98891.09
2022-11-05T06:08:20.815Z,98889.56
2022-11-05T06:11:24.186Z,98900.97
2022-11-05T06:17:06.048Z,98891.00
2022-11-05T06:19:53.426Z,98905.47
2022-11-05T06:22:22.681Z,98903.25
2022-11-05T06:24:50.115Z,98907.81
2022-11-05T06:27:17.527Z,98925.84
2022-11-05T06:29:45.802Z,98925.84
2022-11-05T06:32:15.389Z,98928.31
2022-11-05T06:34:48.006Z,98929.50
2022-11-05T06:37:17.655Z,98935.63
2022-11-05T06:39:44.856Z,98925.75
2022-11-05T06:42:18.663Z,98924.22
2022-11-05T06:44:47.722Z,98921.50
2022-11-05T06:47:18.876Z,98931.88
2022-11-05T06:49:49.284Z,98938.84
2022-11-05T06:52:18.151Z,98941.69
2022-11-05T06:54:45.665Z,98945.06
2022-11-05T06:57:13.286Z,98937.63
2022-11-05T06:59:43.196Z,98942.72
2022-11-05T07:02:13.048Z,98939.88
2022-11-05T07:04:40.356Z,98954.81
2022-11-05T07:07:10.978Z,98954.13
2022-11-05T07:09:42.946Z,98958.97
2022-11-05T07:12:17.905Z,98959.56
2022-11-05T07:14:49.353Z,98956.16
2022-11-05T07:17:22.451Z,98943.19
2022-11-05T07:19:50.003Z,98931.19
2022-11-05T07:22:17.534Z,98951.31
2022-11-05T07:24:50.359Z,98950.28
2022-11-05T07:27:19.142Z,98949.22
2022-11-05T07:29:46.931Z,98932.72
2022-11-05T07:32:14.434Z,98955.84
2022-11-05T07:34:41.727Z,98950.19
2022-11-05T07:37:09.498Z,98953.09
2022-11-05T07:39:37.966Z,98938.75
2022-11-05T07:42:05.504Z,98952.28
2022-11-05T07:44:35.295Z,98961.25
2022-11-05T07:47:22.033Z,98963.25
2022-11-05T07:49:54.315Z,98965.38
2022-11-05T07:52:29.575Z,98962.81
2022-11-05T07:55:13.867Z,98977.41
2022-11-05T07:58:32.432Z,98971.28
2022-11-05T08:03:54.652Z,98971.63
2022-11-05T08:06:31.472Z,98969.59
2022-11-05T08:09:43.536Z,98952.81
2022-11-05T08:17:24.373Z,98976.78
2022-11-05T08:30:48.816Z,98996.34
2022-11-05T08:33:45.607Z,99005.22
2022-11-05T08:36:28.364Z,99000.13
2022-11-05T08:42:11.752Z,99000.38
2022-11-05T08:44:49.192Z,99020.16
2022-11-05T08:50:40.560Z,99023.78
2022-11-05T08:53:17.950Z,99023.25
2022-11-05T08:56:19.647Z,99016.50
2022-11-05T08:59:08.339Z,99021.47
2022-11-05T09:01:55.584Z,99024.63
2022-11-05T09:04:42.045Z,99036.47
2022-11-05T09:08:00.791Z,99040.72
2022-11-05T09:10:54.557Z,99054.16
2022-11-05T09:13:57.126Z,99047.13
2022-11-05T09:16:52.621Z,99055.56
2022-11-05T09:26:20.221Z,99069.22
2022-11-05T09:30:33.298Z,99063.63
2022-11-05T09:36:52.771Z,99074.06
2022-11-05T09:39:23.566Z,99068.63
2022-11-05T09:41:54.319Z,99066.72
2022-11-05T09:44:26.595Z,99062.03
2022-11-05T09:47:01.796Z,99080.25
2022-11-05T09:49:31.973Z,99077.75
2022-11-05T09:52:01.704Z,99081.53
2022-11-05T09:54:33.937Z,99072.75
2022-11-05T09:57:07.170Z,99074.56
2022-11-05T09:59:47.202Z,99077.16
2022-11-05T10:02:23.694Z,99083.06
2022-11-05T10:04:57.222Z,99092.16
2022-11-05T10:07:34.668Z,99098.75
2022-11-05T10:10:09.276Z,99097.22
2022-11-05T10:12:47.085Z,99116.47
2022-11-05T10:15:17.523Z,99119.03
2022-11-05T10:17:49.248Z,99115.69
2022-11-05T10:20:34.185Z,99108.34
2022-11-05T10:23:20.624Z,99118.28
2022-11-05T10:26:04.588Z,99124.59
2022-11-05T10:28:44.890Z,99124.22
2022-11-05T10:32:17.317Z,99127.22
2022-11-05T10:39:28.540Z,99114.94
2022-11-05T10:42:57.789Z,99104.59
2022-11-05T10:54:02.836Z,99127.16
2022-11-05T11:01:23.687Z,99128.56
2022-11-05T11:04:54.068Z,99140.25
2022-11-05T11:13:22.999Z,99141.16
2022-11-05T11:26:02.901Z,99133.47
2022-11-05T11:29:37.200Z,99132.97
2022-11-05T11:33:15.322Z,99139.63
2022-11-05T11:50:39.667Z,99167.97
2022-11-05T11:53:31.388Z,99172.72
2022-11-05T11:56:06.395Z,99173.53
2022-11-05T11:59:46.659Z,99163.94
2022-11-05T12:12:42.088Z,99142.88
2022-11-05T12:16:29.020Z,99160.06
2022-11-05T12:19:54.726Z,99156.78
2022-11-05T12:22:40.415Z,99152.38
2022-11-05T12:25:16.497Z,99157.25
2022-11-05T12:28:14.160Z,99152.38
2022-11-05T12:31:03.257Z,99155.81
2022-11-05T12:33:45.733Z,99157.28
2022-11-05T12:36:20.521Z,99162.50
2022-11-05T12:39:19.662Z,99170.31
2022-11-05T12:42:06.187Z,99155.34
2022-11-05T12:44:33.425Z,99176.22
2022-11-05T12:47:15.030Z,99182.44
2022-11-05T12:50:04.469Z,99188.97
2022-11-05T12:52:44.249Z,99179.13
2022-11-05T12:55:15.700Z,99174.16
2022-11-05T12:57:47.252Z,99169.97
2022-11-05T13:00:27.115Z,99178.81
2022-11-05T13:03:10.855Z,99186.47
2022-11-05T13:05:55.158Z,99175.72
2022-11-05T13:08:57.491Z,99176.81
2022-11-05T13:11:39.947Z,99184.78
2022-11-05T13:14:22.554Z,99182.88
2022-11-05T13:16:54.157Z,99173.72
2022-11-05T13:19:32.174Z,99190.56
2022-11-05T13:22:21.511Z,99202.03
2022-11-05T13:24:53.706Z,99216.59
2022-11-05T13:27:49.421Z,99210.97
2022-11-05T13:30:24.556Z,99202.66
2022-11-05T13:33:06.352Z,99211.38
2022-11-05T13:36:24.573Z,99214.47
2022-11-05T13:39:07.081Z,99220.94
2022-11-05T13:42:14.620Z,99227.13
2022-11-05T13:45:08.231Z,99224.59
2022-11-05T13:48:04.571Z,99216.59
2022-11-05T13:51:00.650Z,99233.16
2022-11-05T13:54:09.241Z,99243.69
2022-11-05T13:56:56.295Z,99243.59
2022-11-05T13:59:38.785Z,99249.81
2022-11-05T14:02:23.907Z,99239.16
2022-11-05T14:05:01.507Z,99252.81
2022-11-05T14:07:32.258Z,99266.59
2022-11-05T14:10:11.712Z,99253.75
2022-11-05T14:12:40.773Z,99260.34
2022-11-05T14:15:20.273Z,99255.81
2022-11-05T14:18:27.261Z,99250.81
2022-11-05T14:20:59.954Z,99249.34
2022-11-05T14:23:38.458Z,99254.56
2022-11-05T14:26:19.228Z,99262.84
2022-11-05T14:29:04.736Z,99267.22
2022-11-05T14:32:08.349Z,99267.00
2022-11-05T14:35:00.745Z,99267.44
2022-11-05T14:37:33.354Z,99265.97
2022-11-05T14:40:37.267Z,99269.09
2022-11-05T14:43:25.958Z,99262.03
2022-11-05T14:46:03.569Z,99260.78
2022-11-05T14:48:35.846Z,99266.59
2022-11-05T14:51:17.186Z,99270.16
2022-11-05T14:53:45.081Z,99257.06
2022-11-05T14:56:19.001Z,99270.72
2022-11-05T14:58:47.057Z,99269.69
2022-11-05T15:01:14.259Z,99267.00
2022-11-05T15:03:46.449Z,99264.72
2022-11-05T15:06:22.547Z,99269.91
2022-11-05T15:08:49.750Z,99270.53
2022-11-05T15:11:22.875Z,99272.84
2022-11-05T15:13:56.037Z,99272.84
2022-11-05T15:16:31.679Z,99267.44
2022-11-05T15:19:00.094Z,99269.50
2022-11-05T15:21:31.804Z,99277.81
2022-11-05T15:23:59.910Z,99272.63
2022-11-05T15:26:47.589Z,99265.78
2022-11-05T15:29:22.287Z,99269.31
2022-11-05T15:31:50.970Z,99270.75
2022-11-05T15:34:36.339Z,99270.53
2022-11-05T15:37:12.863Z,99266.56
2022-11-05T15:39:45.770Z,99267.16
2022-11-05T15:42:15.804Z,99262.81
2022-11-05T15:44:54.331Z,99267.00
2022-11-05T15:47:23.793Z,99277.59
2022-11-05T15:49:57.174Z,99278.19
2022-11-05T15:52:33.774Z,99265.34
2022-11-05T15:55:14.516Z,99287.91
2022-11-05T15:58:07.321Z,99289.16
2022-11-05T16:00:37.200Z,99293.75
2022-11-05T16:03:12.518Z,99296.69
2022-11-05T16:05:46.370Z,99297.56
2022-11-05T16:08:46.102Z,99300.25
2022-11-05T16:11:25.482Z,99304.13
2022-11-05T16:14:14.551Z,99310.59
2022-11-05T16:16:44.458Z,99312.66
2022-11-05T16:19:40.236Z,99310.41
2022-11-05T16:22:09.331Z,99328.44
2022-11-05T16:24:39.403Z,99328.25
2022-11-05T16:27:08.476Z,99331.19
2022-11-05T16:29:45.000Z,99326.16
2022-11-05T16:32:29.692Z,99334.88
2022-11-05T16:35:03.094Z,99334.88
2022-11-05T16:37:40.130Z,99339.50
2022-11-05T16:40:19.573Z,99351.31
2022-11-05T16:42:48.629Z,99349.22
2022-11-05T16:45:18.452Z,99365.84
2022-11-05T16:47:47.464Z,99366.22
2022-11-05T16:50:36.981Z,99361.25
2022-11-05T16:53:10.044Z,99355.44
2022-11-05T16:55:42.408Z,99353.78
2022-11-05T16:58:27.973Z,99362.06
2022-11-05T17:01:08.819Z,99359.56
2022-11-05T17:03:37.257Z,99362.06
2022-11-05T17:06:06.405Z,99372.03
2022-11-05T17:08:36.397Z,99372.03
2022-11-05T17:11:06.723Z,99380.38
2022-11-05T17:13:36.395Z,99382.84
2022-11-05T17:16:04.919Z,99392.00
2022-11-05T17:18:33.650Z,99386.78
2022-11-05T17:21:01.856Z,99388.25
2022-11-05T17:23:30.412Z,99387.63
2022-11-05T17:26:07.701Z,99401.13
2022-11-05T17:28:37.807Z,99404.03
2022-11-05T17:31:10.844Z,99407.16
2022-11-05T17:33:40.754Z,99414.81
2022-11-05T17:36:13.312Z,99407.72
2022-11-05T17:38:43.666Z,99399.03
2022-11-05T17:41:16.955Z,99403.41
2022-11-05T17:43:47.355Z,99404.88
2022-11-05T17:46:17.399Z,99405.94
2022-11-05T17:48:46.447Z,99395.13
2022-11-05T17:51:19.894Z,99409.66
2022-11-05T17:53:49.299Z,99411.75
2022-11-05T17:56:33.459Z,99400.31
2022-11-05T17:59:04.452Z,99414.03
2022-11-05T18:01:35.728Z,99402.41
2022-11-05T18:04:08.581Z,99411.53
2022-11-05T18:06:40.536Z,99412.16
2022-11-05T18:09:10.499Z,99404.47
2022-11-05T18:11:39.758Z,99406.13
2022-11-05T18:14:08.488Z,99409.88
2022-11-05T18:16:38.265Z,99403.00
2022-11-05T18:19:09.174Z,99415.06
2022-11-05T18:21:38.152Z,99406.13
2022-11-05T18:24:08.345Z,99392.00
2022-11-05T18:26:37.338Z,99412.34
2022-11-05T18:29:12.069Z,99418.59
2022-11-05T18:31:44.096Z,99419.66
2022-11-05T18:34:12.397Z,99418.41
2022-11-05T18:36:45.475Z,99420.66
2022-11-05T18:39:18.078Z,99421.50
2022-11-05T18:41:47.072Z,99420.06
2022-11-05T18:44:22.829Z,99421.91
2022-11-05T18:46:58.233Z,99422.56
2022-11-05T18:49:29.966Z,99423.16
2022-11-05T18:51:58.030Z,99435.56
2022-11-05T18:54:27.043Z,99440.81
2022-11-05T18:57:01.086Z,99435.41
2022-11-05T18:59:39.208Z,99439.16
2022-11-05T19:02:14.779Z,99439.78
2022-11-05T19:05:06.573Z,99446.19
2022-11-05T19:07:40.262Z,99449.94
2022-11-05T19:10:09.339Z,99448.72
2022-11-05T19:12:43.345Z,99438.53
2022-11-05T19:15:15.773Z,99454.75
2022-11-05T19:17:46.948Z,99453.50
2022-11-05T19:20:17.222Z,99456.84
2022-11-05T19:22:50.875Z,99452.25
2022-11-05T19:25:18.919Z,99453.94
2022-11-05T19:27:47.094Z,99451.22
2022-11-05T19:30:16.049Z,99457.88
2022-11-05T19:32:43.564Z,99459.50
2022-11-05T19:35:10.778Z,99459.72
2022-11-05T19:37:38.337Z,99461.41
2022-11-05T19:40:10.225Z,99465.75
2022-11-05T19:42:38.035Z,99462.22
2022-11-05T19:47:54.219Z,99467.00
2022-11-05T19:50:21.486Z,99461.78
2022-11-05T19:52:49.095Z,99463.47
2022-11-05T19:55:16.458Z,99464.91
2022-11-05T19:57:45.227Z,99480.91
2022-11-05T20:00:15.989Z,99488.19
2022-11-05T20:02:48.808Z,99478.03
2022-11-05T20:05:19.465Z,99478.03
2022-11-05T20:07:52.543Z,99481.97
2022-11-05T20:10:20.675Z,99483.63
2022-11-05T20:12:53.620Z,99479.25
2022-11-05T20:15:21.351Z,99484.25
2022-11-05T20:17:52.842Z,99487.16
2022-11-05T20:20:21.488Z,99494.84
2022-11-05T20:22:53.283Z,99502.34
2022-11-05T20:25:21.411Z,99495.06
2022-11-05T20:27:50.000Z,99502.13
2022-11-05T20:30:17.527Z,99478.63
2022-11-05T20:32:45.355Z,99507.31
2022-11-05T20:35:14.332Z,99504.63
2022-11-05T20:37:43.616Z,99513.75
2022-11-05T20:40:15.347Z,99514.78
2022-11-05T20:42:44.182Z,99507.09
2022-11-05T20:45:15.925Z,99515.84
2022-11-05T20:47:47.436Z,99520.81
2022-11-05T20:50:19.067Z,99531.19
2022-11-05T20:52:46.973Z,99528.09
2022-11-05T20:55:15.554Z,99526.66
2022-11-05T20:57:43.644Z,99523.31
2022-11-05T21:00:15.414Z,99523.31
2022-11-05T21:02:44.478Z,99527.25
2022-11-05T21:05:13.389Z,99527.47
2022-11-05T21:07:42.884Z,99528.28
2022-11-05T21:10:12.786Z,99523.06
2022-11-05T21:12:40.504Z,99512.91
2022-11-05T21:15:09.142Z,99524.53
2022-11-05T21:17:37.771Z,99524.16
2022-11-05T21:20:11.370Z,99529.94
2022-11-05T21:22:45.461Z,99529.94
2022-11-05T21:25:13.404Z,99529.16
2022-11-05T21:27:44.802Z,99516.25
2022-11-05T21:30:14.680Z,99525.00
2022-11-05T21:32:45.165Z,99527.47
2022-11-05T21:35:12.604Z,99532.22
2022-11-05T21:37:42.165Z,99531.41
2022-11-05T21:40:15.989Z,99539.31
2022-11-05T21:42:43.942Z,99536.22
2022-11-05T21:45:12.974Z,99534.56
2022-11-05T21:47:40.827Z,99541.19
2022-11-05T21:50:09.472Z,99542.88
2022-11-05T21:52:55.980Z,99543.06
2022-11-05T21:55:41.934Z,99542.22
2022-11-05T21:58:34.190Z,99538.28
2022-11-05T22:01:03.167Z,99551.59
2022-11-05T22:03:32.932Z,99549.09
2022-11-05T22:06:01.917Z,99544.94
2022-11-05T22:08:30.672Z,99558.22
2022-11-05T22:10:58.210Z,99542.03
2022-11-05T22:13:25.729Z,99542.66
2022-11-05T22:15:57.214Z,99532.03
2022-11-05T22:18:24.843Z,99533.91
2022-11-05T22:20:52.224Z,99535.81
2022-11-05T22:23:22.571Z,99534.56
2022-11-05T22:25:51.250Z,99538.28
2022-11-05T22:28:20.439Z,99545.97
2022-11-05T22:30:47.712Z,99542.66
2022-11-05T22:33:18.839Z,99537.06
2022-11-05T22:35:47.811Z,99531.22
2022-11-05T22:38:18.277Z,99538.69
2022-11-05T22:40:46.517Z,99509.19
2022-11-05T22:43:14.549Z,99534.13
2022-11-05T22:45:43.891Z,99534.94
2022-11-05T22:48:11.672Z,99539.97
2022-11-05T22:50:39.622Z,99538.69
2022-11-05T22:53:07.124Z,99532.25
2022-11-05T22:55:39.329Z,99530.78
2022-11-05T22:58:07.777Z,99502.09
2022-11-05T23:00:38.374Z,99525.16
2022-11-05T23:03:06.331Z,99528.72
2022-11-05T23:05:33.727Z,99533.72
2022-11-05T23:08:20.860Z,99537.88
2022-11-05T23:11:06.745Z,99531.00
2022-11-05T23:13:34.407Z,99541.41
2022-11-05T23:16:20.124Z,99535.38
2022-11-05T23:19:06.386Z,99545.75
2022-11-05T23:21:58.331Z,99545.75
2022-11-05T23:24:25.967Z,99546.19
2022-11-05T23:26:54.243Z,99547.84
2022-11-05T23:29:24.656Z,99545.38
2022-11-05T23:32:13.133Z,99547.44
2022-11-05T23:34:41.444Z,99540.34
2022-11-05T23:37:27.664Z,99558.22
2022-11-05T23:39:56.223Z,99555.09
2022-11-05T23:42:42.046Z,99549.50
2022-11-05T23:45:28.979Z,99553.44
2022-11-05T23:48:17.798Z,99544.91
2022-11-05T23:50:50.403Z,99518.31
2022-11-05T23:53:20.432Z,99531.81
2022-11-05T23:55:49.268Z,99554.91
2022-11-05T23:58:18.853Z,99553.66
